Startpagina
METAR-TAF:

METAR-TAF

Vliegvelden :

Brussels South Charleroi Airport

Charleroi, België

breedte: 50-28N, lengte: 004-27E, hoogte: 187 m

Actueel weer

Dit bericht is 19 minuten geleden gemaakt, om 03:50 UTC
Wind 7 kt uit het zuidzuidwesten
Temperatuur 8°C
Vochtigheid 87%
Druk 1011 hPa
Zicht 10 km of meer
Weinig wolken op 4500 ft

METAR: EBCI 260350Z 20007KT 9999 FEW045 08/06 Q1011 NOSIG

Tijdstip: 06:09 (04:09 UTC)

Verwachting

Dit bericht is 4 uur en het 49 minuten geleden gemaakt, om 23:20 UTC
Verwachting geldig van 26 om 00 UTC tot 27 om 06 UTC
Wind 7 kt uit het zuidzuidwesten
Zicht 10 km of meer
geen wolken onder 1500 m en geen cumulonimbus
Kans 30% :
Tijdelijke
van 26 om 18 UTC tot 26 om 22 UTC
Zicht: 4500 m
regenbuien
Tijdelijke
van 27 om 04 UTC tot 27 om 06 UTC
Zicht: 4000 m
Gebroken wolken op 1400 ft, Stapelwolken.
regen, regenbuien

TAF: EBCI 252320Z 2600/2706 20007KT CAVOK PROB30 TEMPO 2618/2622 4500 SHRA TEMPO 2704/2706 4000 RA SHRA BKN014TCU

Waarnemingen en weersverwachtingen van meer dan 4000 vliegvelden (METAR en TAF).

De beschikbare stations zijn de gele en rode punten op de kaart.

Ga met uw muis naar het station om de naam te zien.

Klik dan om waarnemingen en weersverwachtingen te zien.

kaart wijzigen: klik op de groene knoppen met een zwart kruis om in te zoomen, op de groene knop met een streepje om uit te zoomen of op de groene pijlen voor aangrenzende kaarten.


METAR-TAF: